Deer Island, Oregon
Current Conditions -  °F | °C
As of 2:12 AM on Friday 31 Oct 2014 (Local Time) from KSPB Reporting Station
Light Rain Light Rain  
Wind Chill: 54°   Ceiling: 1000
Heat Index: 54°   Visibility: 10mi
Dew Point: 52°   Wind: 5mph
Humidity: 93%   Direction: 340°NNW
Pressure: 29.72"   Gusts: NA
Location:  45.93°N, 122.84°W
Report Text: KSPB 310912Z AUTO 34004KT 10SM -RA OVC010 12/11 A2972 RMK AO2 P0001 T01220111
Loading
Personal Weather Stations






























Interactive Weather Map
Tropical Storm Tracking
New forecast layout! Learn more

10-Day Weather Forecast

Advertisements
Track Severe Weather on mobile